Time;durP1;ratioP1;P1;durP2;ratioP2;P2;SDS_P1;SDS_P2;PMS_P1;PMS_P2;Temp;Humidity;BMP_temperature;BMP_pressure;BME280_temperature;BME280_humidity;BME280_pressure;Samples;Min_cycle;Max_cycle;Signal;HPM_P1;HPM_P2
2022/01/11 00:01:47;;;;;;;14.98;7.22;;;;;;;-2.16;94.18;100465.09;6305359;28;20047;-72
2022/01/11 00:04:48;;;;;;;13.88;6.43;;;;;;;-2.11;95.69;100470.22;6305490;28;20047;-73
2022/01/11 00:07:50;;;;;;;12.20;5.15;;;;;;;-2.23;94.01;100469.38;6322124;28;20048;-72
2022/01/11 00:11:02;;;;;;;14.98;8.00;;;;;;;-2.07;94.79;100469.34;6323363;28;20053;-72
2022/01/11 00:14:03;;;;;;;11.07;4.93;;;;;;;-2.09;92.79;100477.00;6321916;28;20101;-72
2022/01/11 00:17:04;;;;;;;14.25;6.72;;;;;;;-2.04;93.78;100487.22;6323189;28;20412;-72
2022/01/11 00:20:06;;;;;;;12.70;5.65;;;;;;;-2.09;94.34;100478.72;6322985;28;20040;-72
2022/01/11 00:26:08;;;;;;;13.88;5.82;;;;;;;-2.11;93.03;100486.38;6321584;28;20047;-72
2022/01/11 00:29:09;;;;;;;9.95;4.07;;;;;;;-2.11;94.15;100490.66;6322958;28;20040;-72
2022/01/11 00:32:15;;;;;;;12.25;5.20;;;;;;;-2.09;93.33;100492.34;6322668;28;20044;-72
2022/01/11 00:35:17;;;;;;;6.43;2.72;;;;;;;-2.03;91.76;100496.59;6322686;28;20044;-72
2022/01/11 00:38:18;;;;;;;10.75;5.50;;;;;;;-2.14;94.34;100499.19;6322546;28;20067;-72
2022/01/11 00:41:19;;;;;;;8.68;3.83;;;;;;;-2.05;93.06;100498.31;6304586;28;20036;-72
2022/01/11 00:44:20;;;;;;;11.43;4.68;;;;;;;-2.16;93.07;100503.47;6321379;28;20042;-72
2022/01/11 00:47:21;;;;;;;11.02;4.93;;;;;;;-1.95;91.60;100510.22;6303570;28;20119;-72
2022/01/11 00:50:22;;;;;;;7.35;3.45;;;;;;;-1.94;91.81;100516.19;6320208;28;20668;-68
2022/01/11 00:53:23;;;;;;;10.05;5.13;;;;;;;-1.90;92.21;100518.72;6322247;28;20128;-69
2022/01/11 00:56:28;;;;;;;13.85;3.85;;;;;;;-2.03;91.16;100522.19;6321114;28;20056;-69
2022/01/11 00:59:29;;;;;;;8.38;4.40;;;;;;;-1.99;91.05;100523.03;6304165;28;20131;-69
2022/01/11 01:02:30;;;;;;;9.18;4.63;;;;;;;-1.98;90.64;100532.41;6322049;28;20040;-69
2022/01/11 01:05:31;;;;;;;7.88;4.72;;;;;;;-2.06;90.55;100517.94;6320412;28;20044;-68
2022/01/11 01:08:32;;;;;;;11.77;5.15;;;;;;;-1.89;90.18;100525.56;6303985;28;20055;-70
2022/01/11 01:11:34;;;;;;;9.50;4.70;;;;;;;-1.90;90.04;100520.44;6321816;28;20443;-68
2022/01/11 01:14:34;;;;;;;8.02;4.53;;;;;;;-2.03;90.37;100525.59;6320853;28;20046;-68
2022/01/11 01:17:35;;;;;;;9.23;3.95;;;;;;;-1.91;90.09;100534.09;6319701;28;20040;-69
2022/01/11 01:20:37;;;;;;;7.40;3.45;;;;;;;-2.02;90.03;100523.88;6319515;28;20510;-70
2022/01/11 01:23:38;;;;;;;7.90;3.75;;;;;;;-2.00;89.47;100514.50;6320427;28;20105;-70
2022/01/11 01:26:39;;;;;;;7.05;3.88;;;;;;;-2.04;90.86;100512.78;6320077;28;20071;-70
2022/01/11 01:29:41;;;;;;;2.63;1.90;;;;;;;-1.98;89.31;100520.44;6321601;28;20044;-70
2022/01/11 01:32:41;;;;;;;8.33;3.80;;;;;;;-2.01;90.94;100517.91;6320507;28;20056;-69
2022/01/11 01:35:47;;;;;;;4.60;2.75;;;;;;;-2.04;91.72;100520.47;6320355;28;20101;-70
2022/01/11 01:38:48;;;;;;;6.43;3.53;;;;;;;-2.03;91.68;100517.91;6321393;28;20541;-69
2022/01/11 01:41:49;;;;;;;8.55;4.13;;;;;;;-1.99;91.50;100512.81;6321501;28;20044;-69
2022/01/11 01:44:50;;;;;;;8.48;4.18;;;;;;;-1.94;90.54;100522.16;6303420;28;20451;-69
2022/01/11 01:47:57;;;;;;;7.95;4.72;;;;;;;-1.92;91.47;100527.28;6303446;28;20051;-69
2022/01/11 01:50:57;;;;;;;5.18;3.20;;;;;;;-1.99;89.42;100528.16;6319962;28;20056;-69
2022/01/11 01:53:59;;;;;;;8.73;4.22;;;;;;;-2.06;91.00;100522.16;6320025;28;20043;-70
2022/01/11 01:57:00;;;;;;;8.30;3.78;;;;;;;-2.14;90.51;100529.88;6320083;28;20043;-69
2022/01/11 02:00:07;;;;;;;7.18;3.67;;;;;;;-2.11;91.77;100527.31;6323666;28;20101;-69
2022/01/11 02:03:13;;;;;;;7.13;3.50;;;;;;;-2.06;91.17;100527.28;6326307;28;20093;-69
2022/01/11 02:06:18;;;;;;;5.50;3.00;;;;;;;-2.03;91.55;100529.84;6326197;28;21129;-69
2022/01/11 02:09:19;;;;;;;5.50;3.63;;;;;;;-2.07;92.21;100529.00;6326167;28;20068;-68
2022/01/11 02:12:20;;;;;;;8.25;3.17;;;;;;;-1.94;90.45;100532.38;6326161;28;20055;-69
2022/01/11 02:15:21;;;;;;;5.70;3.28;;;;;;;-2.09;91.29;100524.75;6326230;28;20075;-69
2022/01/11 02:18:25;;;;;;;6.22;3.13;;;;;;;-1.97;91.39;100534.13;6307848;28;20048;-69
2022/01/11 02:21:26;;;;;;;6.38;3.40;;;;;;;-2.07;90.97;100534.13;6325816;28;20054;-69
2022/01/11 02:24:32;;;;;;;6.80;3.63;;;;;;;-1.92;91.45;100530.66;6325061;28;20117;-69
2022/01/11 02:27:32;;;;;;;8.30;3.50;;;;;;;-1.99;91.23;100528.16;6325402;28;20048;-69
2022/01/11 02:30:34;;;;;;;5.30;2.58;;;;;;;-1.99;89.95;100539.22;6323788;28;20123;-69
2022/01/11 02:33:38;;;;;;;8.90;3.93;;;;;;;-1.90;90.30;100530.69;6306864;28;20139;-69
2022/01/11 02:36:39;;;;;;;4.10;2.58;;;;;;;-1.94;90.53;100545.16;6324366;28;20281;-69
2022/01/11 02:39:40;;;;;;;7.00;3.42;;;;;;;-1.93;90.88;100536.66;6325420;28;20037;-69
2022/01/11 02:42:41;;;;;;;8.60;2.95;;;;;;;-2.01;92.19;100546.03;6321546;28;20040;-69
2022/01/11 02:45:41;;;;;;;5.43;2.70;;;;;;;-1.93;90.18;100544.34;6325079;28;20055;-69
2022/01/11 02:48:42;;;;;;;6.45;3.13;;;;;;;-1.94;91.32;100552.00;6323640;28;20043;-68
2022/01/11 02:51:43;;;;;;;5.32;2.75;;;;;;;-1.94;90.00;100557.13;6324883;28;20110;-69
2022/01/11 02:54:44;;;;;;;9.57;3.80;;;;;;;-1.94;92.65;100554.56;6325277;28;20069;-69
2022/01/11 02:57:45;;;;;;;6.95;3.88;;;;;;;-1.82;90.58;100567.31;6325098;28;20040;-69
2022/01/11 03:00:45;;;;;;;3.55;2.53;;;;;;;-1.85;91.18;100563.06;6325028;28;20040;-69
2022/01/11 03:03:47;;;;;;;8.02;3.30;;;;;;;-1.94;90.06;100554.56;6325072;28;20047;-69
2022/01/11 03:06:48;;;;;;;6.47;3.60;;;;;;;-1.94;90.01;100557.97;6290116;28;20050;-69
2022/01/11 03:10:04;;;;;;;11.25;3.97;;;;;;;-1.99;91.27;100563.97;6323881;28;20037;-69
2022/01/11 03:13:08;;;;;;;7.65;3.85;;;;;;;-1.90;91.39;100561.38;6322709;28;20044;-69
2022/01/11 03:16:11;;;;;;;11.35;5.05;;;;;;;-1.75;90.05;100565.59;6324614;28;20039;-69
2022/01/11 03:19:11;;;;;;;6.70;3.78;;;;;;;-1.78;90.04;100563.06;6324656;28;20128;-69
2022/01/11 03:22:13;;;;;;;9.25;4.65;;;;;;;-1.84;90.36;100569.88;6323334;28;20036;-69
2022/01/11 03:25:14;;;;;;;8.18;4.25;;;;;;;-1.82;90.62;100569.88;6323101;28;20055;-69
2022/01/11 03:28:15;;;;;;;7.55;3.78;;;;;;;-1.76;89.76;100574.13;6324553;28;20127;-68
2022/01/11 03:31:19;;;;;;;9.50;4.90;;;;;;;-1.82;90.20;100567.31;6322967;28;20427;-69
2022/01/11 03:34:19;;;;;;;8.00;3.75;;;;;;;-1.92;89.75;100576.72;6323082;28;20522;-69
2022/01/11 03:37:20;;;;;;;6.55;3.13;;;;;;;-1.95;89.64;100575.88;6322995;28;20119;-70
2022/01/11 03:40:25;;;;;;;8.50;4.22;;;;;;;-1.89;90.65;100581.00;6322913;28;20044;-69
2022/01/11 03:43:26;;;;;;;7.25;3.63;;;;;;;-1.90;90.42;100577.56;6305910;28;20044;-69
2022/01/11 03:46:27;;;;;;;6.72;3.70;;;;;;;-1.87;89.75;100581.84;6322676;28;20125;-69
2022/01/11 03:49:28;;;;;;;7.65;3.80;;;;;;;-1.96;89.33;100586.97;6305608;28;20056;-69
2022/01/11 03:52:28;;;;;;;6.45;3.67;;;;;;;-1.82;90.10;100592.91;6322315;28;20093;-69
2022/01/11 03:58:51;;;;;;;4.80;3.05;;;;;;;-1.98;90.45;100594.63;6322638;28;20377;-68
2022/01/11 04:01:51;;;;;;;;;;;;;;;-1.91;90.99;100600.59;6322868;28;20048;-69
2022/01/11 04:04:53;;;;;;;5.35;3.20;;;;;;;-1.88;90.49;100591.19;6323340;28;19924;-69
2022/01/11 04:07:53;;;;;;;9.05;3.45;;;;;;;-1.97;90.48;100603.16;6322281;28;20048;-68
2022/01/11 04:10:54;;;;;;;5.35;3.45;;;;;;;-1.86;89.36;100601.44;6323140;28;20139;-69
2022/01/11 04:13:55;;;;;;;6.45;3.30;;;;;;;-1.83;88.67;100599.72;6321306;28;20036;-69
2022/01/11 04:16:56;;;;;;;4.45;2.95;;;;;;;-1.97;90.37;100604.00;6323324;28;20052;-69
2022/01/11 04:19:56;;;;;;;5.00;2.67;;;;;;;-2.02;88.96;100600.59;6322024;28;20051;-69
2022/01/11 04:22:57;;;;;;;6.15;3.00;;;;;;;-1.90;88.66;100604.84;6321001;28;20036;-69
2022/01/11 04:25:59;;;;;;;5.05;2.70;;;;;;;-1.83;88.19;100602.28;6321662;28;20048;-69
2022/01/11 04:29:00;;;;;;;6.15;3.50;;;;;;;-1.90;88.26;100607.41;6323142;28;20097;-70
2022/01/11 04:32:01;;;;;;;8.00;4.18;;;;;;;-1.80;88.83;100619.34;6322779;28;20065;-69
2022/01/11 04:35:03;;;;;;;5.20;2.88;;;;;;;-1.94;87.45;100608.25;6288253;28;20385;-69
2022/01/11 04:38:04;;;;;;;3.70;2.33;;;;;;;-1.92;87.61;100612.53;6321544;28;20044;-69
2022/01/11 04:41:05;;;;;;;4.70;3.15;;;;;;;-1.88;88.17;100615.94;6304718;28;20044;-69
2022/01/11 04:44:06;;;;;;;7.00;4.25;;;;;;;-1.72;88.68;100619.34;6322733;28;20044;-69
2022/01/11 04:47:07;;;;;;;4.18;2.60;;;;;;;-1.90;87.24;100615.94;6304302;28;20551;-69
2022/01/11 04:50:09;;;;;;;3.63;2.00;;;;;;;-1.90;86.59;100617.66;6322373;28;20092;-68
2022/01/11 04:53:10;;;;;;;5.90;3.25;;;;;;;-1.90;87.49;100610.81;6322514;28;20071;-69
2022/01/11 04:56:10;;;;;;;6.93;3.58;;;;;;;-1.85;87.02;100627.03;6304309;28;20043;-68
2022/01/11 04:59:11;;;;;;;5.78;3.17;;;;;;;-1.95;86.01;100627.03;6321061;28;20050;-69
2022/01/11 05:02:12;;;;;;;8.45;4.13;;;;;;;-1.90;86.24;100638.94;6321200;28;20141;-70
2022/01/11 05:05:15;;;;;;;5.30;2.92;;;;;;;-1.87;85.71;100644.06;6321872;28;20044;-70
2022/01/11 05:08:16;;;;;;;9.55;3.75;;;;;;;-1.78;85.28;100634.69;6321399;28;20127;-69
2022/01/11 05:11:17;;;;;;;5.00;3.03;;;;;;;-1.93;87.09;100638.13;6320424;28;20383;-69
2022/01/11 05:14:17;;;;;;;5.45;2.40;;;;;;;-1.82;85.69;100649.19;6304071;28;20058;-69
2022/01/11 05:17:18;;;;;;;6.22;2.38;;;;;;;-1.91;86.84;100644.94;6320770;28;20052;-69
2022/01/11 05:20:19;;;;;;;5.57;2.75;;;;;;;-1.88;86.49;100649.19;6321884;28;20573;-69
2022/01/11 05:23:20;;;;;;;4.20;2.38;;;;;;;-1.90;85.04;100653.44;6320503;28;20072;-69
2022/01/11 05:26:20;;;;;;;4.97;2.47;;;;;;;-2.01;85.72;100627.88;6321724;28;20449;-69
2022/01/11 05:29:21;;;;;;;6.15;2.72;;;;;;;-1.94;85.54;100660.25;6321226;28;20044;-68
2022/01/11 05:32:22;;;;;;;3.58;2.50;;;;;;;-1.95;85.89;100653.47;6286269;28;20502;-68
2022/01/11 05:35:25;;;;;;;4.00;2.63;;;;;;;-1.94;85.37;100651.75;6336956;28;20076;-69
2022/01/11 05:38:25;;;;;;;;;;;;;;;-1.97;86.23;100672.22;6321140;28;20039;-69
2022/01/11 05:41:26;;;;;;;8.20;3.33;;;;;;;-1.96;85.53;100661.13;6320675;28;19962;-69
2022/01/11 05:44:27;;;;;;;3.90;2.35;;;;;;;-1.98;85.93;100680.75;6330744;28;20419;-70
2022/01/11 05:47:28;;;;;;;5.32;3.00;;;;;;;-1.98;85.68;100678.19;6302242;28;20123;-70
2022/01/11 05:50:29;;;;;;;2.60;2.08;;;;;;;-1.93;84.31;100673.94;6320649;28;20075;-73
2022/01/11 05:53:30;;;;;;;10.05;3.63;;;;;;;-1.91;85.24;100679.91;6318535;28;20051;-73
2022/01/11 05:56:31;;;;;;;5.30;3.03;;;;;;;-1.94;85.40;100685.84;6336241;28;20048;-73
2022/01/11 05:59:32;;;;;;;6.60;2.42;;;;;;;-2.00;86.51;100690.09;6319750;28;20399;-72
2022/01/11 06:02:33;;;;;;;9.75;3.75;;;;;;;-1.94;85.47;100685.84;6335896;28;20079;-72
2022/01/11 06:05:38;;;;;;;3.15;1.92;;;;;;;-2.01;84.67;100696.09;6317607;28;20044;-72
2022/01/11 06:08:38;;;;;;;14.13;3.50;;;;;;;-2.00;85.43;100693.50;6332496;28;20051;-70
2022/01/11 06:11:39;;;;;;;4.80;2.78;;;;;;;-1.99;84.02;100705.47;6318221;28;20032;-73
2022/01/11 06:14:40;;;;;;;4.07;2.15;;;;;;;-1.94;84.32;100705.47;6315262;28;20484;-72
2022/01/11 06:17:40;;;;;;;5.28;2.50;;;;;;;-1.93;83.90;100702.06;6317306;28;20044;-72
2022/01/11 06:20:41;;;;;;;4.35;2.65;;;;;;;-1.96;84.60;100709.72;6315645;28;20097;-73
2022/01/11 06:23:42;;;;;;;6.03;2.80;;;;;;;-1.89;84.33;100714.00;6316519;28;20051;-72
2022/01/11 06:26:43;;;;;;;6.55;3.22;;;;;;;-1.94;84.96;100708.03;6316662;28;20044;-72
2022/01/11 06:29:44;;;;;;;8.00;3.83;;;;;;;-1.91;85.04;100719.13;6316224;28;20059;-73
2022/01/11 06:32:46;;;;;;;6.75;3.20;;;;;;;-1.90;85.51;100718.25;6315804;28;20050;-73
2022/01/11 06:35:47;;;;;;;9.48;3.78;;;;;;;-1.86;84.88;100719.97;6331884;28;20036;-73
2022/01/11 06:38:48;;;;;;;10.48;3.35;;;;;;;-1.93;83.70;100733.59;6316415;28;20044;-73
2022/01/11 06:41:49;;;;;;;5.75;1.95;;;;;;;-1.87;84.75;100735.31;6315787;28;20115;-71
2022/01/11 06:44:49;;;;;;;2.47;1.73;;;;;;;-1.93;84.39;100738.72;6316690;28;20044;-71
2022/01/11 06:47:51;;;;;;;2.92;1.98;;;;;;;-1.86;84.15;100737.88;6336660;28;20122;-71
2022/01/11 06:50:52;;;;;;;4.82;2.42;;;;;;;-1.94;83.87;100743.84;6319112;28;20493;-70
2022/01/11 06:53:53;;;;;;;6.22;2.75;;;;;;;-1.77;83.64;100742.16;6320232;28;20102;-71
2022/01/11 06:56:54;;;;;;;7.85;3.05;;;;;;;-1.79;83.59;100748.09;6317603;28;20040;-73
2022/01/11 06:59:55;;;;;;;5.82;2.92;;;;;;;-1.86;84.16;100745.53;6321778;28;20042;-72
2022/01/11 07:02:56;;;;;;;3.47;1.95;;;;;;;-1.86;83.38;100753.22;6321467;28;20059;-73
2022/01/11 07:05:57;;;;;;;10.77;3.63;;;;;;;-1.69;83.71;100765.16;6319180;28;20032;-73
2022/01/11 07:08:57;;;;;;;4.93;2.45;;;;;;;-1.72;82.52;100762.63;6318486;28;20407;-72
2022/01/11 07:11:58;;;;;;;6.20;2.33;;;;;;;-1.82;82.91;100766.88;6319429;28;20085;-72
2022/01/11 07:14:59;;;;;;;6.43;2.47;;;;;;;-1.65;82.80;100770.31;6318335;28;20055;-72
2022/01/11 07:18:04;;;;;;;5.63;2.97;;;;;;;-1.70;83.21;100779.69;6318301;28;20111;-71
2022/01/11 07:21:05;;;;;;;5.32;2.78;;;;;;;-1.65;82.11;100778.00;6323463;28;20036;-71
2022/01/11 07:24:06;;;;;;;13.05;5.03;;;;;;;-1.58;82.44;100798.47;6305338;28;20124;-71
2022/01/11 07:27:07;;;;;;;4.05;2.65;;;;;;;-1.64;82.62;100776.28;6303947;28;20043;-71
2022/01/11 07:30:09;;;;;;;8.18;4.15;;;;;;;-1.62;82.45;100787.38;6317077;28;20051;-71
2022/01/11 07:33:09;;;;;;;7.25;4.75;;;;;;;-1.51;81.02;100784.81;6302087;28;20032;-71
2022/01/11 07:36:11;;;;;;;7.22;3.92;;;;;;;-1.61;83.13;100796.72;6319057;28;20058;-71
2022/01/11 07:39:12;;;;;;;3.80;1.90;;;;;;;-1.52;81.36;100794.19;6321565;28;20040;-71
2022/01/11 07:42:13;;;;;;;6.82;3.13;;;;;;;-1.58;82.55;100781.41;6317273;28;20044;-70
2022/01/11 07:45:15;;;;;;;4.63;2.70;;;;;;;-1.44;80.43;100805.28;6317251;28;20063;-70
2022/01/11 07:48:15;;;;;;;6.45;2.88;;;;;;;-1.30;80.57;100809.53;6298448;28;20074;-71
2022/01/11 07:51:16;;;;;;;2.08;1.52;;;;;;;-1.39;80.62;100804.44;6316944;28;20052;-71
2022/01/11 07:54:17;;;;;;;5.40;2.80;;;;;;;-1.48;80.81;100811.25;6318435;28;20521;-70
2022/01/11 07:57:18;;;;;;;7.57;4.15;;;;;;;-1.31;80.66;100816.38;6322116;28;20059;-70
2022/01/11 08:00:19;;;;;;;5.38;3.35;;;;;;;-1.41;81.10;100817.22;6322177;28;20453;-70
2022/01/11 08:03:20;;;;;;;5.38;3.03;;;;;;;-1.31;80.28;100834.31;6318817;28;20048;-72
2022/01/11 08:06:21;;;;;;;5.40;2.90;;;;;;;-1.42;80.53;100836.88;6313798;28;20044;-73
2022/01/11 08:09:22;;;;;;;8.02;3.00;;;;;;;-1.40;79.40;100824.06;6317910;28;20044;-72
2022/01/11 08:12:23;;;;;;;8.32;3.13;;;;;;;-1.38;79.75;100839.41;6319018;28;20078;-71
2022/01/11 08:15:23;;;;;;;15.18;2.80;;;;;;;-1.21;79.69;100832.59;6319077;28;20048;-70
2022/01/11 08:18:24;;;;;;;11.07;5.20;;;;;;;-1.23;78.87;100834.31;6317364;28;20071;-69
2022/01/11 08:21:25;;;;;;;9.48;3.08;;;;;;;-1.25;79.32;100838.56;6327791;28;20040;-69
2022/01/11 08:24:26;;;;;;;9.38;4.60;;;;;;;-1.13;79.59;100843.69;6319585;28;20450;-74
2022/01/11 08:27:27;;;;;;;7.75;3.70;;;;;;;-1.27;80.01;100842.84;6318473;28;20078;-72
2022/01/11 08:30:28;;;;;;;7.13;3.03;;;;;;;-1.34;78.33;100849.69;6318279;28;20039;-73
2022/01/11 08:33:29;;;;;;;7.97;2.42;;;;;;;-1.18;78.46;100852.22;6317310;28;20048;-73
2022/01/11 08:36:30;;;;;;;9.07;3.47;;;;;;;-1.23;78.57;100857.34;6318458;28;20059;-72
2022/01/11 08:39:31;;;;;;;9.68;4.43;;;;;;;-1.08;78.93;100859.06;6301963;28;20055;-70
2022/01/11 08:42:32;;;;;;;7.38;3.72;;;;;;;-1.17;77.91;100864.16;6315729;28;20043;-70
2022/01/11 08:45:33;;;;;;;6.82;3.03;;;;;;;-1.16;77.91;100866.72;6317578;28;20539;-72
2022/01/11 08:48:34;;;;;;;12.30;3.97;;;;;;;-1.10;77.85;100869.28;6317450;28;20468;-73
2022/01/11 08:51:35;;;;;;;5.28;2.92;;;;;;;-1.12;77.72;100865.03;6318060;28;20051;-72
2022/01/11 08:54:37;;;;;;;3.92;2.15;;;;;;;-1.17;77.79;100880.41;6317192;28;20545;-73
2022/01/11 08:57:38;;;;;;;9.02;2.63;;;;;;;-1.13;76.85;100883.81;6312097;28;20105;-73
2022/01/11 09:00:39;;;;;;;7.35;2.80;;;;;;;-1.09;76.97;100873.59;6318478;28;20051;-73
2022/01/11 09:03:40;;;;;;;4.10;2.25;;;;;;;-1.22;76.30;100867.56;6320749;27;20048;-73
2022/01/11 09:06:41;;;;;;;5.22;2.78;;;;;;;-1.11;76.57;100872.72;6313722;28;20064;-73
2022/01/11 09:09:42;;;;;;;7.15;3.63;;;;;;;-1.00;76.15;100866.75;6312334;28;20066;-72
2022/01/11 09:12:43;;;;;;;3.75;2.33;;;;;;;-1.15;75.02;100870.16;6331329;28;20057;-73
2022/01/11 09:15:44;;;;;;;1.65;1.23;;;;;;;-1.14;75.90;100877.84;6316950;28;20055;-73
2022/01/11 09:18:46;;;;;;;4.70;2.83;;;;;;;-0.94;75.78;100877.00;6317479;28;20123;-72
2022/01/11 09:21:47;;;;;;;4.25;2.67;;;;;;;-0.72;75.25;100870.13;6313859;28;20036;-70
2022/01/11 09:24:48;;;;;;;6.15;2.78;;;;;;;-0.84;74.79;100874.41;6318512;28;20032;-69
2022/01/11 09:27:49;;;;;;;2.30;1.98;;;;;;;-0.85;73.72;100879.53;6315707;28;20036;-70
2022/01/11 09:30:51;;;;;;;3.95;2.45;;;;;;;-0.77;73.22;100862.44;6333208;28;20545;-69
2022/01/11 09:33:51;;;;;;;7.38;3.63;;;;;;;-0.79;73.36;100876.97;6315437;28;20041;-73
2022/01/11 09:36:52;;;;;;;4.70;2.45;;;;;;;-0.83;73.93;100873.53;6334785;28;20093;-71
2022/01/11 09:39:53;;;;;;;8.88;3.85;;;;;;;-0.93;74.38;100879.53;6318264;28;20047;-70
2022/01/11 09:42:54;;;;;;;7.35;4.28;;;;;;;-0.73;74.29;100882.09;6312917;28;20131;-70
2022/01/11 09:45:56;;;;;;;5.97;3.00;;;;;;;-0.83;73.40;100883.78;6317123;28;20473;-71
2022/01/11 09:48:57;;;;;;;3.08;2.00;;;;;;;-0.77;73.27;100882.94;6317951;28;20098;-73
2022/01/11 09:51:58;;;;;;;3.75;1.88;;;;;;;-0.76;73.27;100894.91;6315945;28;20520;-73
2022/01/11 09:54:59;;;;;;;3.75;2.42;;;;;;;-0.74;72.42;100880.38;6319285;28;20048;-73
2022/01/11 09:57:59;;;;;;;5.68;2.38;;;;;;;-0.78;73.66;100882.94;6298997;28;20118;-74
2022/01/11 10:01:05;;;;;;;7.93;4.55;;;;;;;-0.72;72.90;100888.06;6315295;28;20044;-75
2022/01/11 10:04:11;;;;;;;6.68;3.10;;;;;;;-0.65;74.26;100893.19;6316203;28;20044;-74
2022/01/11 10:07:13;;;;;;;6.35;3.33;;;;;;;-0.52;73.26;100880.34;6331612;28;20044;-74
2022/01/11 10:10:21;;;;;;;6.05;2.53;;;;;;;-0.53;74.38;100887.19;6332508;28;20040;-74
2022/01/11 10:13:37;;;;;;;7.60;2.30;;;;;;;-0.55;70.90;100881.22;6315074;28;20529;-74
2022/01/11 10:16:38;;;;;;;5.03;2.38;;;;;;;-0.51;74.12;100888.03;6315749;28;20044;-74
2022/01/11 10:19:41;;;;;;;19.05;5.47;;;;;;;-0.51;71.95;100888.03;6319864;28;20047;-74
2022/01/11 10:23:01;;;;;;;6.10;2.63;;;;;;;-0.44;70.95;100879.44;6325423;28;20044;-74
2022/01/11 10:26:02;;;;;;;7.03;3.60;;;;;;;-0.25;70.58;100887.09;6308014;28;20051;-74
2022/01/11 10:29:41;;;;;;;7.53;3.30;;;;;;;-0.29;70.36;100893.97;6338399;28;20119;-74
2022/01/11 10:32:48;;;;;;;10.82;3.97;;;;;;;-0.07;70.74;100891.31;6324944;28;20514;-74
2022/01/11 10:35:50;;;;;;;5.75;2.75;;;;;;;-0.10;69.51;100881.09;6323502;28;20039;-74
2022/01/11 10:38:51;;;;;;;5.55;2.90;;;;;;;-0.04;69.22;100881.91;6302786;28;20047;-74
2022/01/11 10:41:52;;;;;;;6.13;3.60;;;;;;;0.22;69.54;100891.19;6319003;28;20066;-73
2022/01/11 10:45:03;;;;;;;4.50;2.05;;;;;;;0.09;67.53;100882.69;6336359;28;20036;-74
2022/01/11 10:48:13;;;;;;;7.45;3.40;;;;;;;0.14;69.51;100885.22;6318757;28;20121;-74
2022/01/11 10:51:15;;;;;;;10.40;4.20;;;;;;;0.24;69.13;100891.19;6316445;28;20056;-74
2022/01/11 10:54:24;;;;;;;5.40;2.35;;;;;;;0.09;68.75;100889.53;6303286;28;20044;-74
2022/01/11 10:57:36;;;;;;;6.55;3.15;;;;;;;0.22;70.55;100895.47;6320117;28;20478;-71
2022/01/11 11:00:39;;;;;;;9.30;3.63;;;;;;;0.30;69.21;100876.59;6321212;28;20047;-70
2022/01/11 11:03:40;;;;;;;3.80;2.40;;;;;;;0.16;68.52;100892.06;6321803;28;20273;-70
2022/01/11 11:06:40;;;;;;;6.38;3.55;;;;;;;0.16;68.66;100909.19;6323231;28;20043;-74
2022/01/11 11:09:47;;;;;;;5.32;3.15;;;;;;;0.31;68.12;100898.84;6339024;28;20039;-75
2022/01/11 11:12:54;;;;;;;3.25;2.05;;;;;;;0.27;67.38;100898.84;6319493;28;20056;-70
2022/01/11 11:16:00;;;;;;;3.50;2.17;;;;;;;0.36;66.88;100897.09;6319909;28;20044;-70
2022/01/11 11:19:02;;;;;;;17.83;7.53;;;;;;;0.47;66.49;100902.16;6316569;28;20484;-71
2022/01/11 11:22:03;;;;;;;6.63;3.00;;;;;;;0.51;66.48;100896.13;6317370;28;20040;-71
2022/01/11 11:25:05;;;;;;;5.57;2.70;;;;;;;0.46;66.50;100905.59;6314433;28;20043;-71
2022/01/11 11:28:07;;;;;;;18.45;6.07;;;;;;;0.76;67.59;100903.69;6327056;28;20044;-74
2022/01/11 11:31:08;;;;;;;9.75;4.30;;;;;;;0.71;64.35;100897.75;6318264;28;20407;-74
2022/01/11 11:34:10;;;;;;;4.18;2.22;;;;;;;0.67;65.16;100903.75;6318572;28;20035;-74
2022/01/11 11:37:14;;;;;;;8.05;2.63;;;;;;;0.72;66.19;100896.88;6318184;28;20187;-70
2022/01/11 11:40:19;;;;;;;6.43;3.88;;;;;;;1.05;66.37;100894.91;6317044;28;20048;-71
2022/01/11 11:43:21;;;;;;;4.00;2.53;;;;;;;0.93;65.26;100893.31;6320445;28;20091;-71
2022/01/11 11:46:50;;;;;;;5.40;2.88;;;;;;;1.07;66.33;100896.63;6316956;28;20070;-70
2022/01/11 11:49:53;;;;;;;5.13;2.92;;;;;;;1.04;64.72;100901.78;6290225;28;20071;-70
2022/01/11 11:52:55;;;;;;;5.47;3.22;;;;;;;1.04;64.89;100906.06;6322506;28;20036;-71
2022/01/11 11:56:33;;;;;;;8.27;4.05;;;;;;;1.27;65.35;100899.00;6319474;28;20044;-70
2022/01/11 11:59:34;;;;;;;3.50;2.53;;;;;;;1.04;64.63;100895.78;6317465;28;20456;-77
2022/01/11 12:02:43;;;;;;;4.47;2.38;;;;;;;1.03;64.31;100902.66;6317425;28;20040;-77
2022/01/11 12:05:47;;;;;;;3.65;2.50;;;;;;;1.28;64.33;100905.00;6317647;28;20127;-70
2022/01/11 12:09:00;;;;;;;4.13;2.80;;;;;;;1.06;65.21;100912.03;6321312;28;20056;-73
2022/01/11 12:12:02;;;;;;;5.28;1.90;;;;;;;0.95;65.23;100918.13;6322082;28;20114;-72
2022/01/11 12:15:21;;;;;;;2.80;1.90;;;;;;;0.97;66.54;100911.25;6302513;28;20129;-71
2022/01/11 12:18:22;;;;;;;5.15;2.78;;;;;;;0.98;66.03;100914.66;6315177;28;20468;-72
2022/01/11 12:21:25;;;;;;;6.30;3.40;;;;;;;0.88;67.39;100913.88;6317197;28;20078;-72
2022/01/11 12:24:39;;;;;;;;;;;;;;;0.90;65.09;100912.16;6317408;28;20032;-71
2022/01/11 12:28:17;;;;;;;6.25;3.22;;;;;;;1.28;65.43;100912.72;6317168;28;20402;-71
2022/01/11 12:31:32;;;;;;;3.03;1.73;;;;;;;1.07;66.46;100921.44;6307790;28;20059;-71
2022/01/11 12:34:45;;;;;;;3.88;2.42;;;;;;;0.90;65.19;100924.16;6315690;28;20051;-72
2022/01/11 12:37:46;;;;;;;9.30;3.63;;;;;;;0.94;65.58;100916.41;6325530;28;20553;-72
2022/01/11 12:40:48;;;;;;;3.40;1.80;;;;;;;0.90;65.78;100914.72;6302533;28;20410;-72
2022/01/11 12:43:56;;;;;;;10.30;4.85;;;;;;;0.94;67.20;100924.13;6320678;28;20055;-71
2022/01/11 12:46:59;;;;;;;11.52;5.07;;;;;;;0.97;65.75;100925.84;6306002;28;20407;-71
2022/01/11 12:50:18;;;;;;;6.80;3.38;;;;;;;0.91;65.22;100928.44;6321081;28;20098;-71
2022/01/11 12:53:19;;;;;;;12.20;5.30;;;;;;;0.83;65.45;100920.78;6322672;28;20051;-71
2022/01/11 12:56:19;;;;;;;12.10;5.05;;;;;;;0.88;66.00;100928.44;6321509;28;20048;-72
2022/01/11 12:59:22;;;;;;;6.70;3.60;;;;;;;0.95;64.91;100918.13;6304226;28;20094;-71
2022/01/11 13:02:29;;;;;;;7.25;3.65;;;;;;;0.86;65.75;100925.03;6322423;28;20036;-71
2022/01/11 13:05:31;;;;;;;3.30;2.22;;;;;;;0.73;65.71;100927.69;6320889;28;20040;-71
2022/01/11 13:08:32;;;;;;;11.68;5.65;;;;;;;0.91;66.81;100936.16;6322239;28;20388;-71
2022/01/11 13:11:33;;;;;;;6.25;3.30;;;;;;;0.90;66.27;100945.56;6322084;28;20047;-71
2022/01/11 13:14:41;;;;;;;8.85;2.92;;;;;;;0.84;64.97;100943.03;6301156;28;20054;-71
2022/01/11 13:18:33;;;;;;;3.83;2.38;;;;;;;0.85;65.22;100949.03;6303432;28;20443;-70
2022/01/11 13:21:34;;;;;;;4.88;2.10;;;;;;;0.73;65.89;100950.81;6319373;28;20060;-71
2022/01/11 13:24:38;;;;;;;5.30;2.40;;;;;;;0.62;66.57;100955.19;6320771;28;20044;-70
2022/01/11 13:27:52;;;;;;;4.75;2.17;;;;;;;0.68;65.88;100959.41;6322065;28;20062;-71
2022/01/11 13:30:53;;;;;;;5.82;2.10;;;;;;;0.53;65.36;100945.78;6321903;28;20044;-71
2022/01/11 13:33:57;;;;;;;3.10;2.00;;;;;;;0.74;67.84;100946.53;6320562;28;20047;-71
2022/01/11 13:36:59;;;;;;;4.22;2.33;;;;;;;0.58;67.02;100956.91;6321912;28;20082;-71
2022/01/11 13:40:00;;;;;;;5.03;2.97;;;;;;;0.64;65.66;100968.88;6319705;28;20557;-71
2022/01/11 13:43:07;;;;;;;3.95;1.92;;;;;;;0.53;65.49;100957.78;6318907;28;20032;-70
2022/01/11 13:46:15;;;;;;;2.28;1.38;;;;;;;0.46;66.02;100959.53;6317375;28;20040;-70
2022/01/11 13:49:21;;;;;;;8.57;3.35;;;;;;;0.52;67.10;100964.63;6319962;28;20047;-70
2022/01/11 13:52:24;;;;;;;9.63;3.95;;;;;;;0.53;66.05;100974.03;6319764;28;20056;-70
2022/01/11 13:55:24;;;;;;;13.80;4.25;;;;;;;0.42;67.88;100974.97;6336618;28;20050;-76
2022/01/11 13:58:26;;;;;;;6.97;2.92;;;;;;;0.41;66.11;100979.22;6319833;28;20052;-75
2022/01/11 14:01:28;;;;;;;6.10;2.70;;;;;;;0.35;67.26;100979.25;6320236;28;20040;-75
2022/01/11 14:04:35;;;;;;;3.15;2.28;;;;;;;0.36;67.18;100979.25;6320199;28;20044;-75
2022/01/11 14:07:36;;;;;;;8.75;3.78;;;;;;;0.35;68.88;100992.97;6302434;28;20547;-74
2022/01/11 14:10:39;;;;;;;6.97;3.10;;;;;;;0.33;68.19;100992.13;6318275;28;20043;-71
2022/01/11 14:13:40;;;;;;;;;;;;;;;0.33;68.71;100989.56;6314473;28;20162;-72
2022/01/11 14:16:42;;;;;;;5.38;2.28;;;;;;;0.13;67.05;100999.03;6314655;28;19924;-71
2022/01/11 14:20:00;;;;;;;3.38;1.95;;;;;;;0.00;67.24;100985.38;6319844;28;20036;-71